createdAt,value
2023-01-13T00:01:59.342Z,101081.25
2023-01-13T00:05:03.641Z,101088.97
2023-01-13T00:08:08.100Z,101089.59
2023-01-13T00:11:12.111Z,101091.28
2023-01-13T00:14:15.723Z,101085.75
2023-01-13T00:17:18.953Z,101079.59
2023-01-13T00:20:22.384Z,101089.88
2023-01-13T00:23:28.919Z,101087.31
2023-01-13T00:26:36.122Z,101081.03
2023-01-13T00:29:39.782Z,101072.19
2023-01-13T00:32:43.217Z,101075.22
2023-01-13T00:35:56.381Z,101074.97
2023-01-13T00:39:00.546Z,101072.91
2023-01-13T00:42:22.375Z,101071.88
2023-01-13T00:45:24.970Z,101069.97
2023-01-13T00:48:29.440Z,101068.44
2023-01-13T00:51:32.495Z,101077.03
2023-01-13T00:54:35.729Z,101076.25
2023-01-13T00:57:39.444Z,101068.69
2023-01-13T01:00:42.356Z,101071.88
2023-01-13T01:03:48.035Z,101072.91
2023-01-13T01:06:51.414Z,101069.72
2023-01-13T01:09:54.256Z,101074.19
2023-01-13T01:13:00.413Z,101065.97
2023-01-13T01:16:09.059Z,101061.66
2023-01-13T01:19:12.360Z,101055.34
2023-01-13T01:22:16.590Z,101056.75
2023-01-13T01:25:19.520Z,101049.31
2023-01-13T01:28:22.491Z,101046.34
2023-01-13T01:31:28.760Z,101044.91
2023-01-13T01:34:32.119Z,101034.78
2023-01-13T01:37:35.324Z,101039.12
2023-01-13T01:40:41.704Z,101038.25
2023-01-13T01:44:24.168Z,101031.44
2023-01-13T01:47:29.055Z,101032.22
2023-01-13T01:50:34.137Z,101030.66
2023-01-13T01:53:37.369Z,101029.50
2023-01-13T01:56:44.084Z,101030.66
2023-01-13T01:59:47.002Z,101023.09
2023-01-13T02:02:51.791Z,101014.72
2023-01-13T02:05:56.312Z,101013.72
2023-01-13T02:09:00.522Z,101007.94
2023-01-13T02:12:23.336Z,100996.00
2023-01-13T02:15:30.967Z,100999.44
2023-01-13T02:18:46.827Z,100996.87
2023-01-13T02:22:18.381Z,101005.12
2023-01-13T02:25:59.900Z,100999.59
2023-01-13T02:29:59.976Z,101001.66
2023-01-13T02:33:10.027Z,101003.56
2023-01-13T02:36:24.518Z,100999.56
2023-01-13T02:39:43.805Z,101000.59
2023-01-13T02:43:37.005Z,101010.22
2023-01-13T02:46:43.981Z,101002.91
2023-01-13T02:49:53.390Z,101006.37
2023-01-13T02:53:02.233Z,100999.81
2023-01-13T02:56:07.219Z,100987.88
2023-01-13T02:59:12.786Z,100994.81
2023-01-13T03:02:21.492Z,100987.88
2023-01-13T03:05:25.279Z,100984.78
2023-01-13T03:08:39.589Z,100989.13
2023-01-13T03:12:15.521Z,100981.56
2023-01-13T03:15:37.144Z,100981.97
2023-01-13T03:18:56.523Z,100976.44
2023-01-13T03:22:15.113Z,100971.28
2023-01-13T03:25:26.037Z,100967.94
2023-01-13T03:28:49.242Z,100968.97
2023-01-13T03:32:01.473Z,100971.41
2023-01-13T03:35:33.605Z,100967.16
2023-01-13T03:38:43.136Z,100962.28
2023-01-13T03:41:57.307Z,100963.28
2023-01-13T03:45:02.890Z,100959.06
2023-01-13T03:48:14.062Z,100955.22
2023-01-13T03:51:22.428Z,100950.19
2023-01-13T03:54:30.966Z,100957.00
2023-01-13T03:57:39.366Z,100951.22
2023-01-13T04:01:08.866Z,100948.75
2023-01-13T04:04:24.415Z,100950.66
2023-01-13T04:07:50.968Z,100951.56
2023-01-13T04:11:31.306Z,100958.50
2023-01-13T04:14:35.884Z,100955.94
2023-01-13T04:17:39.362Z,100966.22
2023-01-13T04:20:47.274Z,100954.63
2023-01-13T04:23:51.557Z,100962.56
2023-01-13T04:26:56.608Z,100965.13
2023-01-13T04:30:00.567Z,100961.53
2023-01-13T04:33:04.495Z,100969.59
2023-01-13T04:36:09.093Z,100971.16
2023-01-13T04:39:12.092Z,100966.16
2023-01-13T04:42:15.325Z,100966.25
2023-01-13T04:45:18.532Z,100968.06
2023-01-13T04:48:22.693Z,100969.59
2023-01-13T04:51:29.302Z,100969.50
2023-01-13T04:54:34.134Z,100975.75
2023-01-13T04:57:37.810Z,100961.00
2023-01-13T05:00:41.575Z,100965.25
2023-01-13T05:03:44.297Z,100958.19
2023-01-13T05:06:47.951Z,100970.28
2023-01-13T05:09:50.879Z,100970.28
2023-01-13T05:13:16.067Z,100972.84
2023-01-13T05:16:43.619Z,100968.34
2023-01-13T05:19:47.623Z,100972.47
2023-01-13T05:23:10.024Z,100970.69
2023-01-13T05:26:15.171Z,100972.47
2023-01-13T05:29:22.196Z,100981.84
2023-01-13T05:32:28.169Z,100983.81
2023-01-13T05:35:32.702Z,100988.84
2023-01-13T05:38:38.845Z,100994.75
2023-01-13T05:42:03.060Z,101000.25
2023-01-13T05:45:08.099Z,101005.81
2023-01-13T05:48:12.980Z,101004.91
2023-01-13T05:51:17.237Z,100999.66
2023-01-13T05:54:20.039Z,101008.53
2023-01-13T05:57:28.097Z,100993.00
2023-01-13T06:00:32.318Z,101004.31
2023-01-13T06:03:40.991Z,101003.78
2023-01-13T06:06:45.923Z,101001.03
2023-01-13T06:09:49.352Z,100991.66
2023-01-13T06:12:54.301Z,100996.78
2023-01-13T06:16:01.028Z,100999.34
2023-01-13T06:19:09.152Z,101000.38
2023-01-13T06:22:16.845Z,100997.03
2023-01-13T06:25:43.349Z,100994.34
2023-01-13T06:28:47.711Z,100990.75
2023-01-13T06:31:50.863Z,100996.72
2023-01-13T06:34:59.297Z,100997.88
2023-01-13T06:38:08.111Z,100996.31
2023-01-13T06:41:16.062Z,100991.66
2023-01-13T06:44:20.619Z,100998.59
2023-01-13T06:47:23.849Z,100997.28
2023-01-13T06:50:29.494Z,101000.75
2023-01-13T06:53:37.343Z,101006.00
2023-01-13T06:56:41.904Z,101004.44
2023-01-13T06:59:50.545Z,101008.16
2023-01-13T07:02:53.837Z,100999.00
2023-01-13T07:06:08.149Z,101004.50
2023-01-13T07:09:13.238Z,101003.28
2023-01-13T07:12:19.124Z,101003.25
2023-01-13T07:15:24.144Z,101003.19
2023-01-13T07:18:31.572Z,100999.34
2023-01-13T07:21:34.433Z,101006.25
2023-01-13T07:24:37.556Z,101009.06
2023-01-13T07:27:41.613Z,101005.25
2023-01-13T07:30:48.470Z,101006.47
2023-01-13T07:33:51.763Z,101011.31
2023-01-13T07:36:56.265Z,101006.63
2023-01-13T07:40:04.332Z,101018.16
2023-01-13T07:43:31.981Z,101016.47
2023-01-13T07:46:35.165Z,101021.50
2023-01-13T07:49:39.451Z,101027.22
2023-01-13T07:52:42.894Z,101028.44
2023-01-13T07:55:45.719Z,101022.03
2023-01-13T07:58:51.184Z,101015.44
2023-01-13T08:01:54.338Z,101024.09
2023-01-13T08:04:59.024Z,101030.34
2023-01-13T08:08:03.236Z,101037.16
2023-01-13T08:11:08.255Z,101034.94
2023-01-13T08:14:13.221Z,101040.28
2023-01-13T08:17:16.441Z,101049.66
2023-01-13T08:20:21.336Z,101055.00
2023-01-13T08:23:24.614Z,101055.38
2023-01-13T08:26:28.365Z,101055.00
2023-01-13T08:29:40.998Z,101054.41
2023-01-13T08:32:47.898Z,101058.00
2023-01-13T08:35:53.387Z,101058.66
2023-01-13T08:38:56.400Z,101056.59
2023-01-13T08:42:01.244Z,101065.34
2023-01-13T08:45:07.083Z,101060.44
2023-01-13T08:48:11.206Z,101081.00
2023-01-13T08:51:23.963Z,101087.72
2023-01-13T08:54:28.205Z,101084.59
2023-01-13T08:57:33.046Z,101089.84
2023-01-13T09:00:44.875Z,101090.97
2023-01-13T09:03:52.212Z,101098.16
2023-01-13T09:06:56.722Z,101096.38
2023-01-13T09:10:01.778Z,101095.13
2023-01-13T09:13:14.703Z,101098.78
2023-01-13T09:16:18.867Z,101088.84
2023-01-13T09:19:22.063Z,101078.75
2023-01-13T09:22:28.691Z,101086.28
2023-01-13T09:25:32.549Z,101086.38
2023-01-13T09:28:35.138Z,101079.09
2023-01-13T09:31:38.587Z,101072.72
2023-01-13T09:35:00.868Z,101060.16
2023-01-13T09:38:04.354Z,101058.41
2023-01-13T09:41:27.443Z,101068.16
2023-01-13T09:45:00.170Z,101058.09
2023-01-13T09:48:16.906Z,101062.03
2023-01-13T09:51:30.994Z,101061.94
2023-01-13T09:54:41.260Z,101059.41
2023-01-13T09:57:45.872Z,101059.12
2023-01-13T10:01:09.713Z,101058.78
2023-01-13T10:04:15.354Z,101064.34
2023-01-13T10:07:19.418Z,101059.22
2023-01-13T10:10:38.916Z,101056.56
2023-01-13T10:13:44.004Z,101056.63
2023-01-13T10:17:19.087Z,101048.16
2023-01-13T10:21:03.817Z,101052.78
2023-01-13T10:24:20.717Z,101057.41
2023-01-13T10:27:32.244Z,101053.91
2023-01-13T10:30:42.003Z,101048.56
2023-01-13T10:33:48.155Z,101060.66
2023-01-13T10:37:03.878Z,101058.75
2023-01-13T10:40:18.262Z,101059.44
2023-01-13T10:43:23.055Z,101059.22
2023-01-13T10:46:27.369Z,101067.63
2023-01-13T10:49:37.110Z,101061.00
2023-01-13T10:53:01.989Z,101060.22
2023-01-13T10:56:06.962Z,101048.47
2023-01-13T10:59:13.398Z,101040.06
2023-01-13T11:02:32.306Z,101028.97
2023-01-13T11:05:43.066Z,101015.53
2023-01-13T11:08:51.000Z,101011.50
2023-01-13T11:11:57.090Z,101005.12
2023-01-13T11:15:07.247Z,100996.19
2023-01-13T11:18:40.464Z,100997.06
2023-01-13T11:21:58.961Z,100998.06
2023-01-13T11:25:07.348Z,100990.00
2023-01-13T11:28:26.905Z,100987.00
2023-01-13T11:31:50.387Z,100979.28
2023-01-13T11:35:04.893Z,100973.19
2023-01-13T11:38:21.164Z,100972.19
2023-01-13T11:41:35.162Z,100970.19
2023-01-13T11:44:52.985Z,100966.03
2023-01-13T11:48:00.948Z,100955.81
2023-01-13T11:51:13.627Z,100961.97
2023-01-13T11:54:51.509Z,100964.12
2023-01-13T11:58:01.840Z,100961.47
2023-01-13T12:01:24.997Z,100944.44
2023-01-13T12:04:40.902Z,100943.44
2023-01-13T12:07:55.740Z,100942.03
2023-01-13T12:11:12.977Z,100933.78
2023-01-13T12:14:36.109Z,100933.66
2023-01-13T12:18:09.006Z,100920.63
2023-01-13T12:21:19.667Z,100904.47
2023-01-13T12:24:39.404Z,100900.66
2023-01-13T12:28:08.890Z,100892.13
2023-01-13T12:31:16.920Z,100891.66
2023-01-13T12:34:41.227Z,100883.22
2023-01-13T12:38:05.364Z,100872.00
2023-01-13T12:41:40.936Z,100866.63
2023-01-13T12:45:11.082Z,100857.41
2023-01-13T12:48:45.157Z,100866.72
2023-01-13T12:52:01.911Z,100874.09
2023-01-13T12:55:12.786Z,100874.78
2023-01-13T12:58:18.967Z,100881.72
2023-01-13T13:01:38.102Z,100875.16
2023-01-13T13:04:52.476Z,100875.16
2023-01-13T13:08:22.317Z,100875.56
2023-01-13T13:11:58.976Z,100870.63
2023-01-13T13:15:22.665Z,100873.38
2023-01-13T13:18:32.412Z,100878.16
2023-01-13T13:22:16.871Z,100880.16
2023-01-13T13:25:24.931Z,100880.34
2023-01-13T13:28:36.421Z,100886.31
2023-01-13T13:32:25.101Z,100902.00
2023-01-13T13:35:40.996Z,100879.84
2023-01-13T13:39:35.180Z,100887.03
2023-01-13T13:43:04.043Z,100889.28
2023-01-13T13:46:47.169Z,100893.88
2023-01-13T13:50:02.818Z,100891.50
2023-01-13T13:53:21.820Z,100888.13
2023-01-13T13:56:30.257Z,100895.88
2023-01-13T13:59:47.933Z,100899.34
2023-01-13T14:03:12.283Z,100912.34
2023-01-13T14:06:25.939Z,100907.00
2023-01-13T14:09:42.967Z,100906.59
2023-01-13T14:12:54.867Z,100895.13
2023-01-13T14:16:13.483Z,100895.72
2023-01-13T14:19:34.856Z,100891.56
2023-01-13T14:22:55.144Z,100898.13
2023-01-13T14:26:09.066Z,100893.56
2023-01-13T14:29:29.867Z,100895.22
2023-01-13T14:32:36.925Z,100908.94
2023-01-13T14:36:01.940Z,100912.41
2023-01-13T14:39:21.746Z,100918.56
2023-01-13T14:42:35.690Z,100917.56
2023-01-13T14:45:55.204Z,100915.09
2023-01-13T14:49:04.846Z,100918.56
2023-01-13T14:52:20.829Z,100926.41
2023-01-13T14:55:41.847Z,100927.50
2023-01-13T14:58:45.379Z,100920.56
2023-01-13T15:01:54.308Z,100920.56
2023-01-13T15:05:25.843Z,100916.28
2023-01-13T15:08:36.831Z,100922.34
2023-01-13T15:11:41.588Z,100912.81
2023-01-13T15:14:59.158Z,100920.47
2023-01-13T15:18:14.052Z,100928.41
2023-01-13T15:21:23.499Z,100916.28
2023-01-13T15:24:28.512Z,100914.50
2023-01-13T15:27:40.735Z,100902.38
2023-01-13T15:30:56.032Z,100908.44
2023-01-13T15:34:00.846Z,100907.34
2023-01-13T15:37:05.039Z,100899.41
2023-01-13T15:40:33.274Z,100906.94
2023-01-13T15:44:02.720Z,100918.75
2023-01-13T15:47:15.131Z,100919.53
2023-01-13T15:50:27.955Z,100916.16
2023-01-13T15:53:39.841Z,100926.59
2023-01-13T15:56:43.932Z,100928.59
2023-01-13T15:59:50.896Z,100936.44
2023-01-13T16:03:06.892Z,100926.22
2023-01-13T16:06:21.098Z,100932.37
2023-01-13T16:09:27.751Z,100930.56
2023-01-13T16:12:32.538Z,100926.22
2023-01-13T16:15:46.394Z,100933.94
2023-01-13T16:18:50.811Z,100930.16
2023-01-13T16:22:08.724Z,100919.75
2023-01-13T16:25:30.958Z,100919.66
2023-01-13T16:28:37.727Z,100918.56
2023-01-13T16:31:42.893Z,100926.19
2023-01-13T16:34:51.577Z,100918.25
2023-01-13T16:38:01.792Z,100921.63
2023-01-13T16:41:16.182Z,100933.62
2023-01-13T16:44:20.375Z,100930.75
2023-01-13T16:47:26.895Z,100932.22
2023-01-13T16:50:41.849Z,100927.75
2023-01-13T16:53:55.921Z,100924.16
2023-01-13T16:57:13.950Z,100922.16
2023-01-13T17:00:26.033Z,100921.28
2023-01-13T17:03:36.022Z,100912.53
2023-01-13T17:07:19.259Z,100915.91
2023-01-13T17:10:26.124Z,100923.66
2023-01-13T17:13:39.042Z,100922.88
2023-01-13T17:16:52.076Z,100919.28
2023-01-13T17:20:15.826Z,100923.66
2023-01-13T17:23:23.645Z,100918.28
2023-01-13T17:26:32.567Z,100914.91
2023-01-13T17:29:36.150Z,100920.06
2023-01-13T17:32:43.142Z,100920.75
2023-01-13T17:35:56.122Z,100918.19
2023-01-13T17:39:07.979Z,100918.19
2023-01-13T17:42:19.020Z,100908.66
2023-01-13T17:45:24.007Z,100914.59
2023-01-13T17:48:29.054Z,100906.75
2023-01-13T17:51:32.864Z,100903.19
2023-01-13T17:54:43.942Z,100905.66
2023-01-13T17:58:09.213Z,100908.00
2023-01-13T18:01:31.129Z,100912.47
2023-01-13T18:04:47.954Z,100914.41
2023-01-13T18:07:58.021Z,100912.47
2023-01-13T18:11:19.152Z,100924.47
2023-01-13T18:14:24.085Z,100923.47
2023-01-13T18:17:28.402Z,100933.59
2023-01-13T18:21:07.143Z,100947.25
2023-01-13T18:24:32.829Z,100956.59
2023-01-13T18:27:44.871Z,100953.00
2023-01-13T18:30:58.251Z,100957.25
2023-01-13T18:34:02.356Z,100946.94
2023-01-13T18:37:25.140Z,100956.38
2023-01-13T18:40:35.765Z,100962.41
2023-01-13T18:43:41.689Z,100968.69
2023-01-13T18:46:45.923Z,100964.84
2023-01-13T18:49:51.868Z,100966.78
2023-01-13T18:53:11.801Z,100965.97
2023-01-13T18:56:31.874Z,100972.03
2023-01-13T18:59:37.406Z,100966.63
2023-01-13T19:02:43.094Z,100965.75
2023-01-13T19:05:50.104Z,100968.22
2023-01-13T19:09:08.278Z,100963.84
2023-01-13T19:12:17.842Z,100970.00
2023-01-13T19:15:21.856Z,100969.34
2023-01-13T19:18:26.994Z,100978.09
2023-01-13T19:21:32.879Z,100968.66
2023-01-13T19:24:40.872Z,100981.34
2023-01-13T19:27:50.083Z,100984.03
2023-01-13T19:31:00.439Z,100984.94
2023-01-13T19:34:04.272Z,100983.56
2023-01-13T19:37:09.839Z,100994.19
2023-01-13T19:40:20.360Z,100999.56
2023-01-13T19:43:51.745Z,101002.34
2023-01-13T19:47:01.143Z,101018.84
2023-01-13T19:50:11.090Z,101015.47
2023-01-13T19:53:31.809Z,101019.94
2023-01-13T19:56:35.782Z,101022.53
2023-01-13T19:59:43.870Z,101031.25
2023-01-13T20:02:49.734Z,101033.53
2023-01-13T20:06:13.790Z,101028.25
2023-01-13T20:09:19.784Z,101041.25
2023-01-13T20:12:26.887Z,101057.06
2023-01-13T20:15:37.353Z,101064.22
2023-01-13T20:18:54.849Z,101067.00
2023-01-13T20:22:06.789Z,101068.13
2023-01-13T20:25:19.848Z,101070.91
2023-01-13T20:28:24.866Z,101060.69
2023-01-13T20:31:30.080Z,101065.75
2023-01-13T20:34:33.563Z,101064.28
2023-01-13T20:37:38.615Z,101050.37
2023-01-13T20:40:43.808Z,101050.16
2023-01-13T20:43:52.888Z,101037.94
2023-01-13T20:46:59.361Z,101035.25
2023-01-13T20:50:10.810Z,101034.38
2023-01-13T20:53:18.285Z,101033.47
2023-01-13T20:56:23.132Z,101043.69
2023-01-13T20:59:39.764Z,101038.31
2023-01-13T21:02:56.772Z,101036.31
2023-01-13T21:06:00.165Z,101031.06
2023-01-13T21:09:07.585Z,101029.16
2023-01-13T21:12:42.611Z,101034.88
2023-01-13T21:15:49.748Z,101029.94
2023-01-13T21:19:11.905Z,101030.63
2023-01-13T21:22:23.043Z,101035.09
2023-01-13T21:25:28.985Z,101049.91
2023-01-13T21:28:41.805Z,101029.25
2023-01-13T21:31:44.850Z,101026.87
2023-01-13T21:34:48.822Z,101021.41
2023-01-13T21:37:51.935Z,101030.16
2023-01-13T21:41:09.849Z,101027.88
2023-01-13T21:44:41.757Z,101014.19
2023-01-13T21:47:50.861Z,101000.41
2023-01-13T21:50:55.350Z,100987.41
2023-01-13T21:53:59.240Z,100981.34
2023-01-13T21:57:05.146Z,100991.88
2023-01-13T22:00:11.988Z,100992.06
2023-01-13T22:03:18.696Z,100995.75
2023-01-13T22:06:23.209Z,100985.34
2023-01-13T22:09:30.394Z,100986.91
2023-01-13T22:12:44.832Z,101003.41
2023-01-13T22:15:57.300Z,101002.41
2023-01-13T22:19:00.884Z,101017.19
2023-01-13T22:22:10.851Z,101042.53
2023-01-13T22:25:16.911Z,101055.62
2023-01-13T22:28:34.818Z,101074.91
2023-01-13T22:31:42.110Z,101077.59
2023-01-13T22:34:51.081Z,101067.37
2023-01-13T22:37:55.014Z,101057.06
2023-01-13T22:41:06.803Z,101063.22
2023-01-13T22:44:13.144Z,101069.47
2023-01-13T22:47:24.773Z,101079.12
2023-01-13T22:50:34.039Z,101074.06
2023-01-13T22:53:38.985Z,101087.06
2023-01-13T22:56:41.877Z,101088.06
2023-01-13T22:59:46.857Z,101091.69
2023-01-13T23:02:50.056Z,101102.03
2023-01-13T23:06:01.926Z,101096.16
2023-01-13T23:09:05.816Z,101098.75
2023-01-13T23:12:09.236Z,101102.22
2023-01-13T23:15:13.139Z,101090.00
2023-01-13T23:18:17.277Z,101103.81
2023-01-13T23:21:24.199Z,101090.00
2023-01-13T23:24:30.783Z,101083.81
2023-01-13T23:27:37.181Z,101095.28
2023-01-13T23:30:44.091Z,101083.94
2023-01-13T23:33:49.054Z,101071.59
2023-01-13T23:36:51.904Z,101066.44
2023-01-13T23:39:54.724Z,101071.59
2023-01-13T23:42:59.208Z,101059.47
2023-01-13T23:46:05.033Z,101058.56
2023-01-13T23:49:09.426Z,101049.12
2023-01-13T23:52:12.561Z,101039.50
2023-01-13T23:55:20.005Z,101042.88
2023-01-13T23:58:23.248Z,101032.34
